Time;durP1;ratioP1;P1;durP2;ratioP2;P2;SDS_P1;SDS_P2;PMS_P1;PMS_P2;Temp;Humidity;BMP_temperature;BMP_pressure;BME280_temperature;BME280_humidity;BME280_pressure;Samples;Min_cycle;Max_cycle;Signal;HPM_P1;HPM_P2
2021/12/29 00:01:13;;;;;;;15.55;7.20;;;;;;;6.04;100.00;99981.47;5050725;28;20029;-72
2021/12/29 00:03:38;;;;;;;12.35;6.70;;;;;;;6.04;100.00;99981.47;5050712;28;20536;-71
2021/12/29 00:06:04;;;;;;;15.02;7.63;;;;;;;5.99;100.00;99973.56;5050383;28;20025;-72
2021/12/29 00:08:30;;;;;;;10.20;6.35;;;;;;;6.02;100.00;99976.28;5050225;28;20021;-72
2021/12/29 00:10:57;;;;;;;12.50;8.27;;;;;;;6.02;100.00;99973.72;5050204;28;20036;-72
2021/12/29 00:13:25;;;;;;;10.85;6.78;;;;;;;6.01;100.00;99976.19;5050505;28;20028;-72
2021/12/29 00:15:57;;;;;;;13.32;7.45;;;;;;;5.76;100.00;99934.91;5050483;28;20100;-73
2021/12/29 00:18:26;;;;;;;14.30;7.22;;;;;;;6.00;100.00;99985.56;5050192;28;20025;-72
2021/12/29 00:20:52;;;;;;;13.02;7.50;;;;;;;6.01;100.00;99984.78;5050346;28;20575;-71
2021/12/29 00:23:17;;;;;;;12.98;7.88;;;;;;;6.01;100.00;99982.22;5051027;28;20107;-72
2021/12/29 00:25:43;;;;;;;11.50;7.50;;;;;;;5.97;100.00;99982.84;5050461;28;20025;-72
2021/12/29 00:28:08;;;;;;;12.18;7.57;;;;;;;5.90;100.00;99991.91;5050493;28;20151;-71
2021/12/29 00:30:34;;;;;;;15.80;7.80;;;;;;;5.85;100.00;99977.13;5050407;28;20032;-71
2021/12/29 00:32:59;;;;;;;14.15;8.27;;;;;;;5.90;100.00;99999.59;5050209;28;20031;-72
2021/12/29 00:35:25;;;;;;;13.27;7.70;;;;;;;5.89;100.00;99989.28;5050415;28;20025;-71
2021/12/29 00:37:50;;;;;;;9.85;6.60;;;;;;;5.81;100.00;99986.34;5050081;28;20032;-72
2021/12/29 00:40:16;;;;;;;11.40;6.63;;;;;;;5.90;100.00;100002.16;5050272;28;20029;-72
2021/12/29 00:42:41;;;;;;;11.43;7.68;;;;;;;5.69;100.00;99947.34;5050219;28;20029;-72
2021/12/29 00:45:08;;;;;;;12.32;8.18;;;;;;;5.96;100.00;100005.00;5050330;28;20032;-72
2021/12/29 00:47:36;;;;;;;11.75;8.10;;;;;;;5.92;100.00;100005.69;5049958;28;20036;-72
2021/12/29 00:50:06;;;;;;;15.25;9.38;;;;;;;5.92;100.00;100003.13;5050141;28;20120;-72
2021/12/29 00:52:31;;;;;;;;;;;;;;;5.98;100.00;100002.50;5017023;28;20072;-71
2021/12/29 00:54:57;;;;;;;14.18;8.32;;;;;;;5.94;100.00;99996.41;5054166;28;20362;-72
2021/12/29 00:57:23;;;;;;;11.80;7.45;;;;;;;5.88;100.00;99985.84;5053803;28;20090;-71
2021/12/29 00:59:48;;;;;;;9.25;6.95;;;;;;;5.61;100.00;99945.28;5053752;28;20475;-73
2021/12/29 01:02:14;;;;;;;11.98;7.90;;;;;;;5.90;100.00;99984.22;5053737;28;20479;-73
2021/12/29 01:04:39;;;;;;;9.82;6.30;;;;;;;5.94;100.00;99990.38;5054246;28;20036;-71
2021/12/29 01:07:05;;;;;;;11.82;7.63;;;;;;;5.96;100.00;99987.06;5053783;28;20479;-73
2021/12/29 01:09:31;;;;;;;10.98;6.18;;;;;;;5.95;100.00;99993.00;5053932;28;20112;-72
2021/12/29 01:11:57;;;;;;;10.68;6.00;;;;;;;5.92;100.00;99985.19;5053791;28;20025;-73
2021/12/29 01:14:25;;;;;;;8.43;5.05;;;;;;;5.94;100.00;99986.16;5053651;28;20068;-73
2021/12/29 01:16:51;;;;;;;7.35;4.93;;;;;;;5.88;100.00;99990.06;5053908;28;20411;-72
2021/12/29 01:19:23;;;;;;;7.72;4.82;;;;;;;5.85;100.00;99984.81;5053437;28;20031;-73
2021/12/29 01:21:53;;;;;;;8.15;5.22;;;;;;;5.92;100.00;99981.72;5053491;28;20112;-73
2021/12/29 01:24:21;;;;;;;;;;;;;;;5.91;100.00;99982.56;5054161;28;20486;-73
2021/12/29 01:26:47;;;;;;;8.00;4.95;;;;;;;5.64;100.00;99935.16;5053364;28;20377;-73
2021/12/29 01:29:13;;;;;;;8.32;5.00;;;;;;;5.91;100.00;99968.06;5053198;28;20494;-73
2021/12/29 01:31:40;;;;;;;8.13;5.25;;;;;;;5.91;100.00;99962.06;5053263;28;20044;-73
2021/12/29 01:34:05;;;;;;;7.65;5.25;;;;;;;5.92;100.00;99961.22;5052927;28;20147;-73
2021/12/29 01:36:33;;;;;;;8.65;5.30;;;;;;;5.87;100.00;99944.75;5053761;28;20411;-73
2021/12/29 01:38:59;;;;;;;8.98;5.22;;;;;;;5.91;100.00;99957.81;5053139;28;20036;-73
2021/12/29 01:41:25;;;;;;;9.52;5.47;;;;;;;5.89;100.00;99949.16;5053385;28;20172;-72
2021/12/29 01:43:50;;;;;;;9.75;4.88;;;;;;;5.88;100.00;99957.66;5053093;28;20105;-73
2021/12/29 01:46:17;;;;;;;7.70;4.65;;;;;;;5.90;100.00;99957.75;5053359;28;20025;-73
2021/12/29 01:48:43;;;;;;;6.97;5.15;;;;;;;5.87;100.00;99955.00;5053163;28;20033;-73
2021/12/29 01:51:09;;;;;;;6.97;4.60;;;;;;;5.86;100.00;99940.44;5053240;28;20043;-72
2021/12/29 01:53:36;;;;;;;7.72;4.65;;;;;;;5.85;100.00;99942.13;5052930;28;20475;-73
2021/12/29 01:56:01;;;;;;;7.95;4.60;;;;;;;5.73;100.00;99927.09;5052939;28;20033;-72
2021/12/29 01:58:27;;;;;;;7.97;4.68;;;;;;;5.79;100.00;99923.91;5052819;28;20036;-72
2021/12/29 02:00:55;;;;;;;7.45;4.45;;;;;;;5.91;100.00;99942.44;5052743;28;20033;-73
2021/12/29 02:03:20;;;;;;;7.60;4.45;;;;;;;5.89;100.00;99940.59;5052513;28;20041;-72
2021/12/29 02:05:46;;;;;;;8.20;4.63;;;;;;;5.94;100.00;99937.47;5052705;28;20036;-73
2021/12/29 02:08:12;;;;;;;7.25;4.28;;;;;;;5.89;100.00;99931.22;5052712;28;20037;-73
2021/12/29 02:10:46;;;;;;;8.25;3.97;;;;;;;5.94;100.00;99942.59;5052515;28;20032;-74
2021/12/29 02:13:13;;;;;;;7.82;4.97;;;;;;;5.96;100.00;99934.97;5052462;28;20025;-74
2021/12/29 02:15:38;;;;;;;8.63;4.20;;;;;;;5.96;100.00;99932.41;5052275;28;20040;-72
2021/12/29 02:18:12;;;;;;;10.75;5.60;;;;;;;5.96;100.00;99923.03;5052481;28;20462;-73
2021/12/29 02:20:39;;;;;;;41.08;6.40;;;;;;;6.04;100.00;99941.34;5052468;28;20032;-73
2021/12/29 02:23:17;;;;;;;8.23;3.67;;;;;;;5.94;100.00;99928.88;5052112;28;20063;-72
2021/12/29 02:25:49;;;;;;;17.08;6.25;;;;;;;6.05;100.00;99939.69;5052495;28;20025;-72
2021/12/29 02:28:32;;;;;;;9.38;3.78;;;;;;;6.01;100.00;99943.78;5052102;28;20115;-74
2021/12/29 02:30:59;;;;;;;4.93;3.00;;;;;;;6.00;100.00;99954.81;5052009;28;20031;-73
2021/12/29 02:33:25;;;;;;;5.68;2.55;;;;;;;5.74;100.00;99899.78;5051977;28;20048;-73
2021/12/29 02:35:51;;;;;;;5.90;2.70;;;;;;;5.77;100.00;99899.91;5052262;28;20044;-73
2021/12/29 02:38:26;;;;;;;3.85;2.53;;;;;;;5.83;100.00;99924.13;5051868;28;20021;-73
2021/12/29 02:40:55;;;;;;;5.13;2.67;;;;;;;5.93;100.00;99955.31;5051717;28;20063;-74
2021/12/29 02:43:22;;;;;;;4.53;2.50;;;;;;;5.91;100.00;99955.25;5051848;28;20021;-74
2021/12/29 02:45:51;;;;;;;3.90;2.40;;;;;;;5.86;100.00;99956.72;5051866;28;20060;-74
2021/12/29 02:48:18;;;;;;;4.50;2.27;;;;;;;5.81;100.00;99953.06;5051693;28;20459;-73
2021/12/29 02:50:44;;;;;;;9.15;3.72;;;;;;;5.84;100.00;99960.88;5051880;28;20131;-72
2021/12/29 02:53:12;;;;;;;10.82;5.05;;;;;;;5.78;100.00;99953.78;5051312;28;20403;-73
2021/12/29 02:55:37;;;;;;;5.55;3.58;;;;;;;5.69;100.00;99944.78;5051547;28;20560;-73
2021/12/29 02:58:03;;;;;;;6.55;4.00;;;;;;;5.67;100.00;99947.28;5051574;28;20033;-73
2021/12/29 03:00:28;;;;;;;4.88;3.38;;;;;;;5.69;100.00;99948.22;5058227;28;20036;-71
2021/12/29 03:02:53;;;;;;;7.50;3.63;;;;;;;5.67;100.00;99950.69;5071822;28;20035;-71
2021/12/29 03:05:20;;;;;;;6.82;3.90;;;;;;;5.61;100.00;99945.28;5071534;28;20093;-71
2021/12/29 03:07:46;;;;;;;7.82;3.92;;;;;;;5.60;100.00;99942.66;5071093;28;20063;-71
2021/12/29 03:10:11;;;;;;;9.82;4.03;;;;;;;5.51;100.00;99935.41;5071301;28;20064;-72
2021/12/29 03:12:37;;;;;;;7.32;4.22;;;;;;;5.63;100.00;99946.25;5071395;28;20025;-71
2021/12/29 03:15:02;;;;;;;5.78;3.65;;;;;;;5.65;100.00;99942.06;5071014;28;20028;-73
2021/12/29 03:17:30;;;;;;;5.25;3.65;;;;;;;5.51;100.00;99926.03;5071351;28;20029;-72
2021/12/29 03:19:55;;;;;;;5.28;3.70;;;;;;;5.64;100.00;99942.84;5052680;28;20119;-72
2021/12/29 03:22:21;;;;;;;5.90;3.88;;;;;;;5.60;100.00;99923.03;5051056;28;20036;-71
2021/12/29 03:24:47;;;;;;;5.90;3.47;;;;;;;5.31;100.00;99879.00;5051041;28;20029;-71
2021/12/29 03:27:12;;;;;;;5.25;3.90;;;;;;;5.44;100.00;99894.94;5051165;28;20407;-70
2021/12/29 03:29:37;;;;;;;8.23;3.47;;;;;;;5.58;100.00;99916.97;5051223;28;20490;-71
2021/12/29 03:32:07;;;;;;;6.22;3.50;;;;;;;5.60;100.00;99930.72;5051213;28;20035;-71
2021/12/29 03:34:33;;;;;;;5.65;3.40;;;;;;;5.57;100.00;99928.03;5051039;28;20412;-71
2021/12/29 03:36:58;;;;;;;4.68;3.22;;;;;;;5.31;100.00;99879.00;5050755;28;20041;-72
2021/12/29 03:39:26;;;;;;;5.20;3.67;;;;;;;5.64;100.00;99929.19;5051079;28;20029;-73
2021/12/29 03:41:52;;;;;;;5.88;4.13;;;;;;;5.59;100.00;99930.66;5050787;28;20079;-72
2021/12/29 03:44:17;;;;;;;5.63;3.78;;;;;;;5.61;100.00;99934.19;5050912;28;20067;-72
2021/12/29 03:46:43;;;;;;;6.75;3.78;;;;;;;5.60;100.00;99935.84;5050935;28;20174;-72
2021/12/29 03:49:08;;;;;;;4.70;3.55;;;;;;;5.56;100.00;99935.59;5050532;28;20025;-71
2021/12/29 03:51:34;;;;;;;6.30;3.47;;;;;;;5.56;100.00;99931.38;5050881;28;20045;-71
2021/12/29 03:54:02;;;;;;;4.50;3.10;;;;;;;5.57;100.00;99929.69;5050699;28;20044;-72
2021/12/29 03:56:27;;;;;;;4.90;3.05;;;;;;;5.28;100.00;99883.97;5050560;28;20049;-73
2021/12/29 03:58:53;;;;;;;4.18;2.83;;;;;;;5.50;100.00;99923.41;5050816;28;20464;-73
2021/12/29 04:01:23;;;;;;;5.75;3.80;;;;;;;5.48;100.00;99923.34;5050445;28;20025;-73
2021/12/29 04:03:48;;;;;;;8.65;3.83;;;;;;;5.57;100.00;99938.28;5065201;28;20055;-70
2021/12/29 04:06:17;;;;;;;4.82;3.55;;;;;;;5.59;100.00;99943.47;5070418;28;20417;-72
2021/12/29 04:08:42;;;;;;;4.90;3.22;;;;;;;5.62;100.00;99936.81;5070694;28;20031;-72
2021/12/29 04:11:07;;;;;;;7.18;3.90;;;;;;;5.59;100.00;99934.06;5070754;28;20033;-72
2021/12/29 04:13:33;;;;;;;6.93;4.18;;;;;;;5.48;100.00;99923.34;5070546;28;20040;-72
2021/12/29 04:15:58;;;;;;;6.43;4.10;;;;;;;5.61;100.00;99952.09;5070684;28;20077;-72
2021/12/29 04:18:27;;;;;;;5.75;4.40;;;;;;;5.41;100.00;99920.38;5070549;28;20062;-72
2021/12/29 04:20:57;;;;;;;4.93;3.78;;;;;;;5.58;100.00;99949.38;5070723;28;20032;-72
2021/12/29 04:23:27;;;;;;;4.20;3.60;;;;;;;5.25;100.00;99903.41;5070659;28;20031;-72
2021/12/29 04:25:54;;;;;;;6.45;3.75;;;;;;;5.47;100.00;99952.31;5019072;28;20041;-72
2021/12/29 04:28:23;;;;;;;13.38;5.57;;;;;;;5.38;100.00;99959.50;5073860;28;20020;-72
2021/12/29 04:31:10;;;;;;;9.57;4.40;;;;;;;5.39;100.00;99955.28;5074375;28;20062;-72
2021/12/29 04:33:36;;;;;;;17.95;6.88;;;;;;;5.41;100.00;99956.22;5074415;28;20486;-72
2021/12/29 04:36:02;;;;;;;7.60;4.40;;;;;;;5.34;100.00;99953.34;5074489;28;20032;-72
2021/12/29 04:38:28;;;;;;;6.15;4.50;;;;;;;5.28;100.00;99935.16;5074347;28;20028;-72
2021/12/29 04:40:55;;;;;;;5.50;3.92;;;;;;;5.35;100.00;99951.69;5074405;28;20120;-72
2021/12/29 04:43:22;;;;;;;6.10;3.35;;;;;;;5.32;100.00;99941.28;5074185;28;20029;-72
2021/12/29 04:45:47;;;;;;;5.18;3.83;;;;;;;5.33;100.00;99943.06;5074035;28;20402;-72
2021/12/29 04:48:14;;;;;;;5.70;3.97;;;;;;;5.35;100.00;99942.31;5074174;28;20082;-72
2021/12/29 04:51:04;;;;;;;6.55;3.75;;;;;;;5.32;100.00;99937.06;5074110;28;20040;-72
2021/12/29 04:53:30;;;;;;;5.65;4.20;;;;;;;5.30;100.00;99935.25;5073497;28;20487;-72
2021/12/29 04:55:56;;;;;;;6.47;4.43;;;;;;;5.38;100.00;99948.41;5072685;28;20031;-72
2021/12/29 04:58:21;;;;;;;6.78;4.20;;;;;;;5.39;100.00;99938.22;5072120;28;20021;-73
2021/12/29 05:00:49;;;;;;;6.90;4.95;;;;;;;5.40;100.00;99939.13;5072495;28;20123;-72
2021/12/29 05:03:14;;;;;;;7.78;4.43;;;;;;;5.20;100.00;99905.75;5072571;28;20035;-72
2021/12/29 05:05:53;;;;;;;6.65;5.40;;;;;;;5.33;100.00;99928.59;5072637;28;20025;-72
2021/12/29 05:08:24;;;;;;;7.20;5.82;;;;;;;5.40;100.00;99939.13;5056390;28;20115;-72
2021/12/29 05:10:51;;;;;;;11.77;7.18;;;;;;;5.33;100.00;99938.81;5072297;28;20547;-72
2021/12/29 05:13:18;;;;;;;9.13;6.85;;;;;;;5.34;100.00;99938.00;5072233;28;20494;-72
2021/12/29 05:15:46;;;;;;;8.52;6.57;;;;;;;5.32;100.00;99934.50;5072544;28;20119;-72
2021/12/29 05:18:11;;;;;;;10.57;7.82;;;;;;;5.34;100.00;99919.22;5072394;28;20462;-72
2021/12/29 05:20:37;;;;;;;10.48;8.23;;;;;;;5.44;100.00;99926.53;5072290;28;20035;-72
2021/12/29 05:23:03;;;;;;;12.05;8.38;;;;;;;5.37;100.00;99908.25;5072325;28;20135;-72
2021/12/29 05:25:31;;;;;;;10.88;8.77;;;;;;;5.40;100.00;99913.53;5072107;28;20036;-72
2021/12/29 05:27:57;;;;;;;10.90;9.00;;;;;;;5.33;100.00;99891.84;5072220;28;20060;-72
2021/12/29 05:30:23;;;;;;;11.30;8.73;;;;;;;5.50;100.00;99900.38;5072270;28;20576;-72
2021/12/29 05:32:49;;;;;;;11.30;9.15;;;;;;;5.57;100.00;99906.66;5072261;28;20043;-72
2021/12/29 05:35:15;;;;;;;10.77;9.15;;;;;;;5.54;100.00;99903.94;5072006;28;20024;-72
2021/12/29 05:37:41;;;;;;;11.23;8.65;;;;;;;5.57;100.00;99906.66;5071502;28;20397;-72
2021/12/29 05:40:08;;;;;;;10.98;9.32;;;;;;;5.55;100.00;99906.59;5072187;28;20120;-72
2021/12/29 05:42:34;;;;;;;14.35;9.90;;;;;;;5.25;100.00;99847.97;5019961;28;20044;-72
2021/12/29 05:45:08;;;;;;;14.05;9.93;;;;;;;5.51;100.00;99892.75;5072111;28;20573;-72
2021/12/29 05:47:34;;;;;;;21.33;11.05;;;;;;;5.67;100.00;99909.72;5071939;28;20032;-72
2021/12/29 05:50:00;;;;;;;16.25;11.32;;;;;;;5.73;100.00;99903.13;5071684;28;20040;-72
2021/12/29 05:52:26;;;;;;;17.17;13.63;;;;;;;5.74;100.00;99897.22;5071677;28;20112;-72
2021/12/29 05:54:51;;;;;;;93.53;57.03;;;;;;;5.29;100.00;99823.41;5029999;28;1212958;-72
2021/12/29 05:57:17;;;;;;;69.15;41.45;;;;;;;5.70;100.00;99903.88;5072946;28;20094;-72
2021/12/29 05:59:42;;;;;;;66.28;42.95;;;;;;;5.76;100.00;99903.28;5072705;28;20025;-72
2021/12/29 06:02:08;;;;;;;94.60;73.75;;;;;;;5.67;100.00;99889.25;5072792;28;20070;-72
2021/12/29 06:04:33;;;;;;;43.80;33.90;;;;;;;5.62;100.00;99903.50;5072772;28;20017;-72
2021/12/29 06:06:59;;;;;;;34.42;28.58;;;;;;;5.46;100.00;99883.97;5072469;28;20025;-72
2021/12/29 06:09:25;;;;;;;29.65;24.33;;;;;;;5.51;100.00;99894.44;5072702;28;20032;-72
2021/12/29 06:11:50;;;;;;;20.88;18.63;;;;;;;5.51;100.00;99905.56;5072580;28;20035;-72
2021/12/29 06:14:16;;;;;;;17.33;15.02;;;;;;;5.44;100.00;99893.25;5072564;28;20043;-72
2021/12/29 06:16:41;;;;;;;14.48;11.68;;;;;;;5.51;100.00;99899.56;5072644;28;20020;-72
2021/12/29 06:19:07;;;;;;;17.80;15.90;;;;;;;5.51;100.00;99902.13;5072408;28;20104;-72
2021/12/29 06:21:32;;;;;;;13.48;11.50;;;;;;;5.43;100.00;99899.19;5072168;28;20029;-72
2021/12/29 06:23:58;;;;;;;15.98;13.13;;;;;;;5.39;100.00;99901.53;5072665;28;20024;-72
2021/12/29 06:26:23;;;;;;;14.70;12.75;;;;;;;5.14;100.00;99859.38;5072441;28;20470;-72
2021/12/29 06:28:49;;;;;;;13.10;10.77;;;;;;;5.39;100.00;99911.78;5072254;28;20032;-72
2021/12/29 06:31:15;;;;;;;13.73;11.40;;;;;;;5.41;100.00;99907.59;5072132;28;20028;-72
2021/12/29 06:33:40;;;;;;;12.38;10.48;;;;;;;5.43;100.00;99906.88;5072136;28;20410;-72
2021/12/29 06:36:06;;;;;;;12.55;10.10;;;;;;;5.30;100.00;99895.16;5072009;28;20033;-72
2021/12/29 06:38:34;;;;;;;13.52;10.73;;;;;;;5.41;100.00;99910.13;5072559;28;20083;-72
2021/12/29 06:40:59;;;;;;;12.43;9.73;;;;;;;5.39;100.00;99914.34;5072095;28;20399;-72
2021/12/29 06:43:25;;;;;;;16.98;13.43;;;;;;;5.42;100.00;99910.25;5072048;28;20021;-72
2021/12/29 06:45:53;;;;;;;13.32;10.82;;;;;;;5.35;100.00;99911.59;5072088;28;20025;-72
2021/12/29 06:48:19;;;;;;;13.82;11.15;;;;;;;5.41;100.00;99910.13;5071844;28;20025;-72
2021/12/29 06:50:45;;;;;;;12.65;9.95;;;;;;;5.46;100.00;99918.94;5071066;28;20028;-72
2021/12/29 06:53:10;;;;;;;14.95;11.60;;;;;;;5.40;100.00;99918.66;5071819;28;20033;-72
2021/12/29 06:55:36;;;;;;;13.75;10.43;;;;;;;5.31;100.00;99909.72;5071820;28;20399;-72
2021/12/29 06:58:02;;;;;;;14.82;10.50;;;;;;;5.38;100.00;99905.75;5071754;28;20052;-71
2021/12/29 07:00:27;;;;;;;11.80;9.48;;;;;;;5.49;100.00;99919.94;5071669;28;20032;-72
2021/12/29 07:02:53;;;;;;;10.35;8.98;;;;;;;5.22;100.00;99878.56;5071819;28;20040;-72
2021/12/29 07:05:18;;;;;;;10.60;8.45;;;;;;;5.49;100.00;99919.09;5071335;28;20085;-72
2021/12/29 07:07:46;;;;;;;12.57;10.32;;;;;;;5.46;100.00;99916.41;5071564;28;20052;-72
2021/12/29 07:10:11;;;;;;;13.68;10.43;;;;;;;5.43;100.00;99921.34;5003322;28;20048;-72
2021/12/29 07:12:37;;;;;;;10.77;8.90;;;;;;;5.15;100.00;99876.50;5071416;28;20035;-72
2021/12/29 07:15:03;;;;;;;11.40;8.82;;;;;;;5.39;100.00;99920.31;5069072;28;20040;-74
2021/12/29 07:17:28;;;;;;;10.93;7.80;;;;;;;5.48;100.00;99927.56;5065143;28;20036;-73
2021/12/29 07:19:54;;;;;;;9.35;7.95;;;;;;;5.46;100.00;99918.94;5052310;28;20024;-74
2021/12/29 07:22:19;;;;;;;11.40;8.30;;;;;;;5.56;100.00;99935.59;5060179;28;20078;-73
2021/12/29 07:24:45;;;;;;;16.42;14.35;;;;;;;5.53;100.00;99928.66;5060518;28;20170;-73
2021/12/29 07:27:10;;;;;;;14.88;11.95;;;;;;;5.62;100.00;99928.22;5062069;28;20028;-74
2021/12/29 07:29:37;;;;;;;22.38;17.00;;;;;;;5.63;100.00;99923.19;5060127;28;20028;-73
2021/12/29 07:32:03;;;;;;;16.45;12.98;;;;;;;5.68;100.00;99920.84;5063725;28;20020;-74
2021/12/29 07:34:29;;;;;;;16.40;13.85;;;;;;;5.70;100.00;99915.81;5060100;28;20467;-73
2021/12/29 07:36:55;;;;;;;11.23;7.43;;;;;;;5.80;100.00;99923.97;5063237;28;20039;-74
2021/12/29 07:39:21;;;;;;;23.33;18.88;;;;;;;5.88;100.00;99918.34;5061513;28;20028;-74
2021/12/29 07:41:48;;;;;;;12.57;9.75;;;;;;;5.81;100.00;99914.63;5060132;28;20138;-74
2021/12/29 07:44:17;;;;;;;11.43;8.68;;;;;;;5.80;100.00;99897.50;5063852;28;20025;-74
2021/12/29 07:46:44;;;;;;;12.68;9.82;;;;;;;5.90;100.00;99911.63;5062119;28;20483;-74
2021/12/29 07:49:10;;;;;;;14.15;9.95;;;;;;;5.98;100.00;99920.53;5060027;28;20116;-74
2021/12/29 07:51:35;;;;;;;9.32;7.55;;;;;;;5.95;100.00;99916.13;5061869;28;20029;-73
2021/12/29 07:54:01;;;;;;;11.02;6.93;;;;;;;6.03;100.00;99921.69;5059788;28;20075;-73
2021/12/29 07:56:27;;;;;;;14.43;7.10;;;;;;;6.04;100.00;99920.84;5060700;28;20028;-74
2021/12/29 07:58:53;;;;;;;11.23;6.45;;;;;;;5.96;100.00;99901.66;5061176;28;20114;-73
2021/12/29 08:01:18;;;;;;;7.80;5.80;;;;;;;6.12;100.00;99936.59;5059020;28;20494;-74
2021/12/29 08:03:44;;;;;;;11.40;7.30;;;;;;;6.07;100.00;99925.22;5060662;28;20035;-73
2021/12/29 08:06:10;;;;;;;10.63;5.38;;;;;;;6.10;100.00;99930.50;5060693;28;20025;-73
2021/12/29 08:08:35;;;;;;;9.60;7.85;;;;;;;5.99;100.00;99917.19;5049486;28;20021;-73
2021/12/29 08:11:01;;;;;;;7.15;5.93;;;;;;;6.03;100.00;99929.38;5051705;28;20067;-73
2021/12/29 08:13:26;;;;;;;10.10;7.80;;;;;;;6.06;100.00;99928.63;5059903;28;20029;-73
2021/12/29 08:15:51;;;;;;;22.20;16.25;;;;;;;5.95;100.00;99917.84;5059941;28;20033;-73
2021/12/29 08:18:17;;;;;;;18.80;12.38;;;;;;;5.98;100.00;99921.44;5061210;28;20036;-73
2021/12/29 08:20:43;;;;;;;11.60;7.57;;;;;;;6.05;100.00;99921.75;5059357;28;20041;-73
2021/12/29 08:23:10;;;;;;;14.20;12.07;;;;;;;6.12;100.00;99923.78;5059991;28;20033;-73
2021/12/29 08:25:36;;;;;;;11.05;8.38;;;;;;;6.05;100.00;99929.44;5061114;28;20087;-73
2021/12/29 08:28:02;;;;;;;10.60;9.50;;;;;;;6.01;100.00;99918.16;5058297;28;20029;-73
2021/12/29 08:30:28;;;;;;;10.85;9.23;;;;;;;5.76;100.00;99878.53;5059731;28;20090;-73
2021/12/29 08:32:54;;;;;;;17.70;10.93;;;;;;;6.13;100.00;99936.66;5059440;28;20033;-73
2021/12/29 08:35:20;;;;;;;13.48;10.98;;;;;;;6.11;100.00;99938.25;5061157;28;20086;-72
2021/12/29 08:37:46;;;;;;;17.17;11.68;;;;;;;6.07;100.00;99926.13;5059341;28;20490;-73
2021/12/29 08:40:12;;;;;;;26.48;17.08;;;;;;;6.01;100.00;99904.44;5059574;28;20054;-73
2021/12/29 08:42:39;;;;;;;24.60;15.48;;;;;;;6.06;100.00;99926.06;5061010;28;20028;-73
2021/12/29 08:45:07;;;;;;;20.88;13.30;;;;;;;5.83;100.00;99897.63;5059185;28;20709;-73
2021/12/29 08:47:33;;;;;;;20.83;13.23;;;;;;;5.92;100.00;99920.22;5059061;28;20479;-73
2021/12/29 08:49:59;;;;;;;17.38;12.43;;;;;;;5.91;100.00;99911.69;5067839;28;20045;-73
2021/12/29 08:52:24;;;;;;;21.33;14.50;;;;;;;5.89;100.00;99910.72;5059210;28;20036;-73
2021/12/29 08:54:50;;;;;;;19.73;12.88;;;;;;;5.99;100.00;99910.41;5060138;28;20483;-72
2021/12/29 08:57:16;;;;;;;23.17;14.88;;;;;;;5.98;100.00;99911.19;5060739;28;20471;-72
2021/12/29 08:59:41;;;;;;;23.35;16.10;;;;;;;5.98;100.00;99907.72;5059544;28;20082;-73
2021/12/29 09:02:08;;;;;;;18.55;13.88;;;;;;;5.98;100.00;99905.16;5063439;28;20021;-73
2021/12/29 09:04:33;;;;;;;15.75;12.07;;;;;;;5.90;100.00;99902.25;5046413;28;20033;-75
2021/12/29 09:06:59;;;;;;;16.27;12.75;;;;;;;5.93;100.00;99894.72;5060534;28;20028;-70
2021/12/29 09:09:24;;;;;;;15.98;12.98;;;;;;;5.94;100.00;99893.91;5058939;28;20111;-72
2021/12/29 09:11:50;;;;;;;19.55;15.63;;;;;;;6.00;100.00;99890.78;5059482;28;20040;-70
2021/12/29 09:14:16;;;;;;;23.38;18.80;;;;;;;6.01;100.00;99887.41;5063647;28;20040;-72
2021/12/29 09:16:43;;;;;;;26.70;19.67;;;;;;;6.05;100.00;99883.28;5061890;28;20407;-73
2021/12/29 09:19:12;;;;;;;33.03;29.65;;;;;;;6.02;100.00;99872.91;5054877;28;20033;-74
2021/12/29 09:21:39;;;;;;;22.00;19.13;;;;;;;6.01;100.00;99873.69;5067293;28;20029;-70
2021/12/29 09:24:05;;;;;;;21.85;18.15;;;;;;;5.79;100.00;99824.88;5062801;28;20056;-70
2021/12/29 09:26:31;;;;;;;22.25;16.15;;;;;;;6.07;100.00;99873.97;5056627;28;20863;-69
2021/12/29 09:28:57;;;;;;;29.95;22.67;;;;;;;6.05;100.00;99852.56;5062636;28;20036;-70
2021/12/29 09:31:24;;;;;;;30.10;22.27;;;;;;;6.12;100.00;99862.28;5065010;28;20033;-71
2021/12/29 09:33:50;;;;;;;31.73;22.42;;;;;;;6.14;100.00;99855.50;5035345;28;20094;-73
2021/12/29 09:36:15;;;;;;;37.25;25.05;;;;;;;6.14;100.00;99847.81;5053348;28;20029;-73
2021/12/29 09:38:42;;;;;;;38.53;26.52;;;;;;;6.17;100.00;99847.06;5062073;28;20745;-72
2021/12/29 09:41:10;;;;;;;31.77;22.75;;;;;;;6.13;100.00;99843.50;5062848;28;20067;-71
2021/12/29 09:43:37;;;;;;;23.42;17.48;;;;;;;6.09;100.00;99850.19;5053826;28;20474;-70
2021/12/29 09:46:05;;;;;;;20.63;15.63;;;;;;;6.15;100.00;99842.75;5062335;28;20025;-75
2021/12/29 09:48:30;;;;;;;19.80;14.18;;;;;;;6.11;100.00;99842.56;5062275;28;20092;-74
2021/12/29 09:50:56;;;;;;;25.25;17.05;;;;;;;6.20;100.00;99832.72;5071492;28;20072;-70
2021/12/29 09:53:22;;;;;;;23.63;16.52;;;;;;;6.24;100.00;99841.41;5072808;28;20414;-70
2021/12/29 09:55:48;;;;;;;27.02;18.27;;;;;;;6.23;100.00;99847.34;5072743;28;20032;-70
2021/12/29 09:58:16;;;;;;;18.80;14.35;;;;;;;6.19;100.00;99846.34;5070784;28;20036;-70
2021/12/29 10:00:50;;;;;;;20.40;14.70;;;;;;;5.95;100.00;99805.09;5066006;28;20078;-72
2021/12/29 10:03:19;;;;;;;19.58;15.13;;;;;;;6.17;100.00;99824.91;5052566;28;20041;-70
2021/12/29 10:05:48;;;;;;;25.48;16.58;;;;;;;6.12;100.00;99816.16;5066587;28;20040;-70
2021/12/29 10:08:18;;;;;;;33.92;19.13;;;;;;;6.08;100.00;99792.06;5063278;28;20029;-72
2021/12/29 10:10:48;;;;;;;30.73;21.45;;;;;;;6.24;100.00;99801.31;5061532;28;20033;-70
2021/12/29 10:13:14;;;;;;;;;;;;;;;6.29;100.00;99815.19;5062133;28;20025;-70
2021/12/29 10:15:43;;;;;;;19.30;13.48;;;;;;;6.28;100.00;99813.44;5062473;28;20428;-73
2021/12/29 10:18:11;;;;;;;23.92;19.83;;;;;;;6.23;100.00;99807.25;5063141;28;20456;-73
2021/12/29 10:20:52;;;;;;;21.58;16.02;;;;;;;6.27;100.00;99805.69;5052098;28;20465;-71
2021/12/29 10:23:22;;;;;;;22.17;18.35;;;;;;;6.33;100.00;99800.81;5062497;28;20075;-73
2021/12/29 10:25:50;;;;;;;30.85;21.92;;;;;;;6.36;100.00;99795.81;5064497;28;20025;-70
2021/12/29 10:28:35;;;;;;;36.08;28.38;;;;;;;6.34;100.00;99783.75;5061040;28;20035;-72
2021/12/29 10:31:05;;;;;;;28.63;21.23;;;;;;;6.40;100.00;99794.25;5061466;28;20040;-70
2021/12/29 10:33:37;;;;;;;33.00;24.15;;;;;;;6.44;100.00;99791.91;5017778;28;20062;-71
2021/12/29 10:36:13;;;;;;;53.15;35.72;;;;;;;6.52;100.00;99787.09;5061758;28;20467;-73
2021/12/29 10:38:40;;;;;;;43.88;32.08;;;;;;;6.23;100.00;99748.28;5060271;28;20032;-72
2021/12/29 10:41:07;;;;;;;35.90;25.60;;;;;;;6.41;100.00;99767.81;5064461;28;20094;-72
2021/12/29 10:43:33;;;;;;;17.17;14.02;;;;;;;6.46;100.00;99774.88;5062690;28;20107;-72
2021/12/29 10:45:59;;;;;;;21.98;14.45;;;;;;;6.40;100.00;99754.09;5062333;28;20077;-71
2021/12/29 10:48:30;;;;;;;20.33;14.35;;;;;;;6.52;100.00;99769.13;5063123;28;20032;-71
2021/12/29 10:51:05;;;;;;;14.80;11.60;;;;;;;6.54;100.00;99762.41;5064457;28;20025;-72
2021/12/29 10:53:33;;;;;;;17.05;12.65;;;;;;;6.47;100.00;99762.94;5017277;28;20495;-70
2021/12/29 10:55:59;;;;;;;14.55;11.90;;;;;;;6.50;100.00;99768.19;5061403;28;20032;-73
2021/12/29 10:58:27;;;;;;;14.60;10.43;;;;;;;6.54;100.00;99761.50;5031507;28;20483;-70
2021/12/29 11:01:08;;;;;;;14.55;11.65;;;;;;;6.54;100.00;99764.06;5060256;28;20032;-70
2021/12/29 11:03:35;;;;;;;15.98;11.75;;;;;;;6.54;100.00;99757.28;5071360;28;20081;-70
2021/12/29 11:06:03;;;;;;;15.30;11.73;;;;;;;6.48;100.00;99750.19;5071003;28;20024;-70
2021/12/29 11:08:44;;;;;;;19.40;12.60;;;;;;;6.17;100.00;99695.88;5065128;28;20032;-71
2021/12/29 11:11:09;;;;;;;36.60;23.83;;;;;;;6.27;100.00;99719.41;5069646;28;20085;-69
2021/12/29 11:13:35;;;;;;;26.00;18.20;;;;;;;6.53;100.00;99752.06;5070669;28;20585;-70
2021/12/29 11:16:03;;;;;;;21.77;14.73;;;;;;;6.60;100.00;99743.81;5065894;28;20470;-69
2021/12/29 11:18:47;;;;;;;27.50;20.65;;;;;;;6.53;100.00;99744.38;5062007;28;20051;-71
2021/12/29 11:21:23;;;;;;;17.65;13.32;;;;;;;6.51;100.00;99735.75;5061345;28;20025;-75
2021/12/29 11:23:49;;;;;;;35.65;24.73;;;;;;;6.25;100.00;99682.56;5058970;28;20024;-69
2021/12/29 11:26:15;;;;;;;19.58;15.73;;;;;;;6.45;100.00;99724.41;5057417;28;20047;-72